首页
METAR-TAF:

METAR-TAF

机场 :

石家庄正定国际机场

石家庄市, 中华人民共和国

纬度: 38-16-51N, 经度: 114-41-48E, 海拔: 233米

当前天气观测

该预报发布于51分钟前的20:00 UTC
风速2节,风向
温度 22°C
湿度 100%
气压 1004 hPa
能見度: 8000
阴天层高于4600英尺

METAR: ZBSJ 192000Z 01001MPS 8000 OVC046 22/22 Q1004 NOSIG

时间: 04:51 (20:51 UTC)

预报

该预报发布于7小时和4分钟前的13:47 UTC
预报有效从19日的 18点(UTC)到 20日的 18点(UTC)
风速8节,风向北转东北
能见度10公里或以上
1500米以下无云,无积雨云

TAF: ZBSJ 191347Z 1918/2018 03004MPS CAVOK TX30/2007Z TN22/1921Z

超过4000个机场的气象观测和天气预报(METAR&TAF报告)。

可查询的气象台以黄色和红色小点在地图上表示。

将鼠标移到小点上方,可查看气象台名称。

然后点击查看天气观测和预报。

如需切换地图:点击带黑十字的绿色按钮放大地图;点击带横线的绿色按钮缩小地图;或者点击绿色箭头查看邻近地区的地图。


METAR-TAF: